createdAt,value
2023-02-09T00:01:16.776Z,-1.19
2023-02-09T00:03:43.752Z,-1.18
2023-02-09T00:06:13.248Z,-1.35
2023-02-09T00:08:39.805Z,-1.25
2023-02-09T00:11:12.425Z,-1.27
2023-02-09T00:13:43.427Z,-1.37
2023-02-09T00:16:10.032Z,-1.38
2023-02-09T00:18:37.146Z,-1.42
2023-02-09T00:21:09.078Z,-1.34
2023-02-09T00:23:39.085Z,-1.43
2023-02-09T00:26:09.422Z,-1.38
2023-02-09T00:28:36.850Z,-1.49
2023-02-09T00:31:12.227Z,-1.48
2023-02-09T00:33:39.185Z,-1.30
2023-02-09T00:36:07.502Z,-1.33
2023-02-09T00:38:36.446Z,-1.47
2023-02-09T00:41:03.660Z,-1.37
2023-02-09T00:43:30.798Z,-1.42
2023-02-09T00:45:57.225Z,-1.54
2023-02-09T00:48:23.779Z,-1.59
2023-02-09T00:50:52.270Z,-1.69
2023-02-09T00:53:19.526Z,-1.71
2023-02-09T00:55:46.313Z,-1.70
2023-02-09T00:58:13.499Z,-1.70
2023-02-09T01:00:40.430Z,-1.81
2023-02-09T01:03:07.730Z,-1.89
2023-02-09T01:05:34.500Z,-1.87
2023-02-09T01:08:01.302Z,-1.87
2023-02-09T01:10:27.675Z,-2.02
2023-02-09T01:12:54.399Z,-2.10
2023-02-09T01:15:20.895Z,-2.14
2023-02-09T01:17:47.272Z,-2.31
2023-02-09T01:20:14.157Z,-2.50
2023-02-09T01:22:40.703Z,-2.47
2023-02-09T01:25:07.876Z,-2.49
2023-02-09T01:27:35.624Z,-2.62
2023-02-09T01:30:02.060Z,-2.67
2023-02-09T01:32:28.468Z,-2.55
2023-02-09T01:34:55.071Z,-2.81
2023-02-09T01:37:21.514Z,-2.97
2023-02-09T01:39:48.029Z,-3.18
2023-02-09T01:42:19.430Z,-3.08
2023-02-09T01:44:46.007Z,-3.06
2023-02-09T01:47:17.645Z,-3.03
2023-02-09T01:49:46.042Z,-3.11
2023-02-09T01:52:15.619Z,-3.10
2023-02-09T01:54:45.540Z,-3.20
2023-02-09T01:57:25.330Z,-2.96
2023-02-09T01:59:59.022Z,-3.18
2023-02-09T02:02:25.706Z,-3.33
2023-02-09T02:04:52.787Z,-3.47
2023-02-09T02:07:27.102Z,-3.20
2023-02-09T02:09:54.277Z,-3.25
2023-02-09T02:12:20.958Z,-3.16
2023-02-09T02:14:50.711Z,-3.15
2023-02-09T02:17:53.762Z,-3.21
2023-02-09T02:20:44.176Z,-3.44
2023-02-09T02:23:33.043Z,-3.48
2023-02-09T02:26:37.124Z,-3.59
2023-02-09T02:29:13.348Z,-3.39
2023-02-09T02:31:59.224Z,-3.66
2023-02-09T02:34:34.841Z,-3.72
2023-02-09T02:37:13.915Z,-3.90
2023-02-09T02:39:52.303Z,-3.97
2023-02-09T02:42:50.356Z,-4.00
2023-02-09T02:45:41.434Z,-4.16
2023-02-09T02:48:18.296Z,-4.25
2023-02-09T02:50:49.651Z,-4.23
2023-02-09T02:53:18.182Z,-4.27
2023-02-09T02:55:45.823Z,-4.39
2023-02-09T02:58:14.321Z,-4.38
2023-02-09T03:00:45.288Z,-4.35
2023-02-09T03:03:16.141Z,-4.32
2023-02-09T03:05:43.323Z,-4.26
2023-02-09T03:08:10.068Z,-4.35
2023-02-09T03:10:39.177Z,-4.26
2023-02-09T03:13:24.519Z,-4.36
2023-02-09T03:16:20.504Z,-4.47
2023-02-09T03:19:19.034Z,-4.41
2023-02-09T03:21:49.922Z,-4.44
2023-02-09T03:24:31.534Z,-4.41
2023-02-09T03:27:03.001Z,-4.51
2023-02-09T03:29:30.418Z,-4.54
2023-02-09T03:32:01.073Z,-4.54
2023-02-09T03:34:27.829Z,-4.54
2023-02-09T03:36:55.480Z,-4.13
2023-02-09T03:39:22.237Z,-4.25
2023-02-09T03:41:48.998Z,-4.24
2023-02-09T03:44:27.779Z,-4.04
2023-02-09T03:46:56.592Z,-4.21
2023-02-09T03:49:24.122Z,-4.27
2023-02-09T03:51:50.582Z,-4.15
2023-02-09T03:54:16.961Z,-4.27
2023-02-09T03:56:43.381Z,-4.41
2023-02-09T03:59:09.866Z,-4.55
2023-02-09T04:01:36.286Z,-4.62
2023-02-09T04:04:03.881Z,-4.65
2023-02-09T04:06:31.775Z,-4.32
2023-02-09T04:09:02.136Z,-4.28
2023-02-09T04:11:28.489Z,-4.17
2023-02-09T04:13:55.158Z,-4.24
2023-02-09T04:16:21.614Z,-4.36
2023-02-09T04:18:49.464Z,-4.46
2023-02-09T04:21:15.876Z,-4.36
2023-02-09T04:23:42.432Z,-4.27
2023-02-09T04:26:08.841Z,-4.32
2023-02-09T04:28:35.422Z,-4.36
2023-02-09T04:31:02.106Z,-4.36
2023-02-09T04:33:29.223Z,-4.47
2023-02-09T04:35:55.684Z,-4.49
2023-02-09T04:38:22.638Z,-4.64
2023-02-09T04:40:50.629Z,-4.72
2023-02-09T04:43:17.474Z,-4.83
2023-02-09T04:45:44.195Z,-4.84
2023-02-09T04:48:13.586Z,-4.78
2023-02-09T04:50:40.149Z,-4.79
2023-02-09T04:53:06.525Z,-4.82
2023-02-09T04:55:33.453Z,-4.89
2023-02-09T04:58:18.537Z,-5.01
2023-02-09T05:00:46.366Z,-5.10
2023-02-09T05:03:12.895Z,-5.23
2023-02-09T05:05:40.657Z,-5.25
2023-02-09T05:08:08.004Z,-5.21
2023-02-09T05:10:35.129Z,-5.20
2023-02-09T05:13:01.700Z,-5.28
2023-02-09T05:15:28.824Z,-5.27
2023-02-09T05:17:55.507Z,-5.30
2023-02-09T05:20:22.271Z,-5.31
2023-02-09T05:22:50.134Z,-5.29
2023-02-09T05:25:17.101Z,-5.20
2023-02-09T05:27:59.074Z,-5.15
2023-02-09T05:30:26.649Z,-4.96
2023-02-09T05:32:55.424Z,-5.12
2023-02-09T05:35:24.127Z,-5.11
2023-02-09T05:37:50.579Z,-5.15
2023-02-09T05:40:17.601Z,-5.07
2023-02-09T05:42:44.204Z,-5.13
2023-02-09T05:45:11.133Z,-5.20
2023-02-09T05:47:37.796Z,-5.29
2023-02-09T05:50:04.835Z,-5.50
2023-02-09T05:52:31.253Z,-5.51
2023-02-09T05:54:57.753Z,-5.67
2023-02-09T05:57:24.384Z,-5.68
2023-02-09T05:59:50.785Z,-5.80
2023-02-09T06:02:17.301Z,-5.78
2023-02-09T06:04:43.795Z,-5.82
2023-02-09T06:07:12.090Z,-5.90
2023-02-09T06:09:39.034Z,-5.97
2023-02-09T06:12:05.595Z,-5.99
2023-02-09T06:14:31.993Z,-6.04
2023-02-09T06:16:58.385Z,-6.10
2023-02-09T06:19:25.305Z,-6.11
2023-02-09T06:21:51.974Z,-6.06
2023-02-09T06:24:18.534Z,-6.18
2023-02-09T06:26:44.985Z,-6.23
2023-02-09T06:29:15.652Z,-6.20
2023-02-09T06:31:42.240Z,-6.20
2023-02-09T06:34:09.409Z,-6.16
2023-02-09T06:36:35.835Z,-6.20
2023-02-09T06:39:02.353Z,-6.21
2023-02-09T06:41:28.680Z,-6.33
2023-02-09T06:43:55.079Z,-6.33
2023-02-09T06:46:21.624Z,-6.30
2023-02-09T06:48:48.063Z,-6.26
2023-02-09T06:51:16.175Z,-6.34
2023-02-09T06:53:43.243Z,-6.20
2023-02-09T06:56:11.172Z,-5.89
2023-02-09T06:58:38.050Z,-5.14
2023-02-09T07:01:05.726Z,-4.39
2023-02-09T07:03:32.982Z,-3.70
2023-02-09T07:06:07.279Z,-3.35
2023-02-09T07:08:34.618Z,-3.05
2023-02-09T07:11:02.517Z,-1.97
2023-02-09T07:13:29.794Z,-0.73
2023-02-09T07:15:59.828Z,0.27
2023-02-09T07:18:26.853Z,0.84
2023-02-09T07:21:01.578Z,1.49
2023-02-09T07:23:29.732Z,1.73
2023-02-09T07:25:56.417Z,2.46
2023-02-09T07:28:23.172Z,3.11
2023-02-09T07:30:51.948Z,3.42
2023-02-09T07:33:19.398Z,4.68
2023-02-09T07:35:46.191Z,5.24
2023-02-09T07:38:13.099Z,6.08
2023-02-09T07:40:45.798Z,6.57
2023-02-09T07:43:13.467Z,5.86
2023-02-09T07:45:40.574Z,6.58
2023-02-09T07:48:11.791Z,6.49
2023-02-09T07:50:38.283Z,5.05
2023-02-09T07:53:04.755Z,6.39
2023-02-09T07:55:31.171Z,6.44
2023-02-09T07:57:57.572Z,7.33
2023-02-09T08:00:25.561Z,7.82
2023-02-09T08:02:52.095Z,7.40
2023-02-09T08:05:27.054Z,8.35
2023-02-09T08:07:53.558Z,8.55
2023-02-09T08:10:19.940Z,7.87
2023-02-09T08:13:16.072Z,9.50
2023-02-09T08:15:45.609Z,8.75
2023-02-09T08:18:28.583Z,8.89
2023-02-09T08:20:55.057Z,9.78
2023-02-09T08:23:30.479Z,9.49
2023-02-09T08:25:58.395Z,11.43
2023-02-09T08:28:38.309Z,9.93
2023-02-09T08:31:10.723Z,10.10
2023-02-09T08:33:37.282Z,9.91
2023-02-09T08:36:04.123Z,9.83
2023-02-09T08:38:30.502Z,8.16
2023-02-09T08:40:56.914Z,8.61
2023-02-09T08:43:23.306Z,8.86
2023-02-09T08:45:51.284Z,8.11
2023-02-09T08:48:17.860Z,8.50
2023-02-09T08:50:44.260Z,9.41
2023-02-09T08:53:10.727Z,10.05
2023-02-09T08:55:38.142Z,10.12
2023-02-09T08:58:04.983Z,11.03
2023-02-09T09:00:31.415Z,10.55
2023-02-09T09:02:57.986Z,10.82
2023-02-09T09:05:24.576Z,10.70
2023-02-09T09:07:51.235Z,11.92
2023-02-09T09:10:17.940Z,13.48
2023-02-09T09:12:45.106Z,13.40
2023-02-09T09:15:11.445Z,13.67
2023-02-09T09:17:37.865Z,15.23
2023-02-09T09:20:04.548Z,14.40
2023-02-09T09:22:30.985Z,14.18
2023-02-09T09:24:57.350Z,14.96
2023-02-09T09:27:26.057Z,15.00
2023-02-09T09:29:53.301Z,13.79
2023-02-09T09:32:24.964Z,14.39
2023-02-09T09:34:55.722Z,15.41
2023-02-09T09:37:22.529Z,15.64
2023-02-09T09:39:49.103Z,14.41
2023-02-09T09:42:33.329Z,16.38
2023-02-09T09:44:59.738Z,16.41
2023-02-09T09:47:39.720Z,16.60
2023-02-09T09:50:23.398Z,15.03
2023-02-09T09:53:01.379Z,15.57
2023-02-09T09:55:29.947Z,14.14
2023-02-09T09:57:58.830Z,15.71
2023-02-09T10:00:28.156Z,16.44
2023-02-09T10:02:54.793Z,17.16
2023-02-09T10:05:26.892Z,14.08
2023-02-09T10:08:07.128Z,10.43
2023-02-09T10:10:56.610Z,9.93
2023-02-09T10:13:31.100Z,9.96
2023-02-09T10:15:58.345Z,9.32
2023-02-09T10:18:25.625Z,9.94
2023-02-09T10:20:54.881Z,9.36
2023-02-09T10:23:27.741Z,9.53
2023-02-09T10:26:01.201Z,10.60
2023-02-09T10:28:31.580Z,11.00
2023-02-09T10:31:01.107Z,10.57
2023-02-09T10:33:29.844Z,10.15
2023-02-09T10:35:58.555Z,10.80
2023-02-09T10:38:28.317Z,10.24
2023-02-09T10:40:54.891Z,10.07
2023-02-09T10:43:28.566Z,9.11
2023-02-09T10:45:56.902Z,9.58
2023-02-09T10:48:25.110Z,8.73
2023-02-09T10:51:01.051Z,9.48
2023-02-09T10:53:35.567Z,10.48
2023-02-09T10:56:17.471Z,10.16
2023-02-09T10:58:53.111Z,10.58
2023-02-09T11:01:26.369Z,9.55
2023-02-09T11:04:18.807Z,7.89
2023-02-09T11:06:59.215Z,8.01
2023-02-09T11:09:34.778Z,8.59
2023-02-09T11:12:01.643Z,9.46
2023-02-09T11:14:28.599Z,9.60
2023-02-09T11:17:13.139Z,10.37
2023-02-09T11:19:50.682Z,10.19
2023-02-09T11:22:54.929Z,9.37
2023-02-09T11:25:28.017Z,8.31
2023-02-09T11:28:22.011Z,7.92
2023-02-09T11:31:00.250Z,8.41
2023-02-09T11:34:04.952Z,8.67
2023-02-09T11:36:41.153Z,8.69
2023-02-09T11:39:12.294Z,9.81
2023-02-09T11:42:03.977Z,10.44
2023-02-09T11:44:45.704Z,9.94
2023-02-09T11:47:19.740Z,9.44
2023-02-09T11:49:51.087Z,9.74
2023-02-09T11:52:27.257Z,9.41
2023-02-09T11:54:57.153Z,9.70
2023-02-09T11:57:48.060Z,8.86
2023-02-09T12:00:19.423Z,8.81
2023-02-09T12:03:08.689Z,7.95
2023-02-09T12:05:35.536Z,7.00
2023-02-09T12:08:27.004Z,6.35
2023-02-09T12:11:10.919Z,7.32
2023-02-09T12:13:40.463Z,7.87
2023-02-09T12:16:13.674Z,7.62
2023-02-09T12:18:42.241Z,7.22
2023-02-09T12:21:08.977Z,6.66
2023-02-09T12:23:36.469Z,6.78
2023-02-09T12:26:43.659Z,7.25
2023-02-09T12:29:35.234Z,7.90
2023-02-09T12:32:01.864Z,7.49
2023-02-09T12:34:51.359Z,7.19
2023-02-09T12:37:27.263Z,6.62
2023-02-09T12:40:06.930Z,6.28
2023-02-09T12:43:05.817Z,6.23
2023-02-09T12:45:35.875Z,5.86
2023-02-09T12:48:15.152Z,6.36
2023-02-09T12:50:51.213Z,6.23
2023-02-09T12:53:23.960Z,6.84
2023-02-09T12:56:12.580Z,6.64
2023-02-09T12:58:45.385Z,6.88
2023-02-09T13:01:13.948Z,6.77
2023-02-09T13:03:56.786Z,7.58
2023-02-09T13:06:49.001Z,6.69
2023-02-09T13:09:26.261Z,6.43
2023-02-09T13:12:11.133Z,6.52
2023-02-09T13:14:38.393Z,6.45
2023-02-09T13:17:23.628Z,6.63
2023-02-09T13:19:55.983Z,6.79
2023-02-09T13:22:47.618Z,6.75
2023-02-09T13:25:40.850Z,6.54
2023-02-09T13:28:16.644Z,6.50
2023-02-09T13:30:43.194Z,6.25
2023-02-09T13:33:31.493Z,6.19
2023-02-09T13:36:01.121Z,6.29
2023-02-09T13:38:31.406Z,5.69
2023-02-09T13:40:58.421Z,5.98
2023-02-09T13:43:32.592Z,6.24
2023-02-09T13:46:00.509Z,6.61
2023-02-09T13:48:33.151Z,6.41
2023-02-09T13:51:02.657Z,6.27
2023-02-09T13:53:30.345Z,6.33
2023-02-09T13:56:00.020Z,6.41
2023-02-09T13:58:33.138Z,6.28
2023-02-09T14:01:03.611Z,6.56
2023-02-09T14:03:32.836Z,6.24
2023-02-09T14:06:31.528Z,6.16
2023-02-09T14:08:58.732Z,5.97
2023-02-09T14:11:45.191Z,5.96
2023-02-09T14:14:54.534Z,5.50
2023-02-09T14:17:28.938Z,5.62
2023-02-09T14:20:00.869Z,5.71
2023-02-09T14:22:38.910Z,5.77
2023-02-09T14:25:15.692Z,5.57
2023-02-09T14:27:46.844Z,5.50
2023-02-09T14:30:21.061Z,5.05
2023-02-09T14:32:52.111Z,5.17
2023-02-09T14:35:30.435Z,5.15
2023-02-09T14:38:01.587Z,4.98
2023-02-09T14:40:28.167Z,5.37
2023-02-09T14:43:02.281Z,5.24
2023-02-09T14:45:37.735Z,4.93
2023-02-09T14:48:17.748Z,4.84
2023-02-09T14:50:45.157Z,4.74
2023-02-09T14:53:15.264Z,4.83
2023-02-09T14:55:42.658Z,4.69
2023-02-09T14:58:19.454Z,4.66
2023-02-09T15:00:47.671Z,4.56
2023-02-09T15:03:14.478Z,4.37
2023-02-09T15:05:41.781Z,4.15
2023-02-09T15:08:12.584Z,4.09
2023-02-09T15:10:43.608Z,4.04
2023-02-09T15:13:12.550Z,4.02
2023-02-09T15:15:40.005Z,3.97
2023-02-09T15:18:07.244Z,3.92
2023-02-09T15:20:33.883Z,3.95
2023-02-09T15:23:00.972Z,3.75
2023-02-09T15:25:29.260Z,3.44
2023-02-09T15:27:58.412Z,3.31
2023-02-09T15:30:30.878Z,3.34
2023-02-09T15:32:57.422Z,3.35
2023-02-09T15:35:26.043Z,3.25
2023-02-09T15:37:55.115Z,3.17
2023-02-09T15:40:47.913Z,3.02
2023-02-09T15:43:35.938Z,2.87
2023-02-09T15:46:03.740Z,2.74
2023-02-09T15:48:31.936Z,2.73
2023-02-09T15:50:59.062Z,2.57
2023-02-09T15:53:26.888Z,2.44
2023-02-09T15:55:54.477Z,2.37
2023-02-09T15:58:35.444Z,2.29
2023-02-09T16:01:02.768Z,2.25
2023-02-09T16:03:31.834Z,2.20
2023-02-09T16:06:00.909Z,2.11
2023-02-09T16:08:33.291Z,1.99
2023-02-09T16:11:00.988Z,1.81
2023-02-09T16:13:27.686Z,1.65
2023-02-09T16:15:56.857Z,1.67
2023-02-09T16:18:24.920Z,1.87
2023-02-09T16:20:52.156Z,1.90
2023-02-09T16:23:21.773Z,1.88
2023-02-09T16:25:52.744Z,1.69
2023-02-09T16:28:20.827Z,1.71
2023-02-09T16:30:53.365Z,1.56
2023-02-09T16:33:20.840Z,1.36
2023-02-09T16:35:53.950Z,1.18
2023-02-09T16:38:22.347Z,0.96
2023-02-09T16:40:49.435Z,0.78
2023-02-09T16:43:16.446Z,0.49
2023-02-09T16:45:53.937Z,0.40
2023-02-09T16:48:29.450Z,0.39
2023-02-09T16:50:56.669Z,0.32
2023-02-09T16:53:35.630Z,0.16
2023-02-09T16:56:09.996Z,0.16
2023-02-09T16:58:37.474Z,0.13
2023-02-09T17:01:04.323Z,-0.10
2023-02-09T17:03:38.907Z,-0.13
2023-02-09T17:06:06.355Z,-0.30
2023-02-09T17:08:38.040Z,-0.25
2023-02-09T17:11:05.245Z,-0.29
2023-02-09T17:13:32.085Z,-0.40
2023-02-09T17:15:59.647Z,-0.49
2023-02-09T17:18:29.092Z,-0.50
2023-02-09T17:20:58.270Z,-0.45
2023-02-09T17:23:26.912Z,-0.49
2023-02-09T17:25:55.201Z,-0.58
2023-02-09T17:28:23.179Z,-0.63
2023-02-09T17:30:50.246Z,-0.51
2023-02-09T17:33:23.832Z,-0.43
2023-02-09T17:38:41.795Z,-0.45
2023-02-09T17:41:15.091Z,-0.60
2023-02-09T17:43:41.676Z,-0.60
2023-02-09T17:46:10.675Z,-0.72
2023-02-09T17:48:37.173Z,-0.88
2023-02-09T17:51:06.839Z,-0.99
2023-02-09T17:53:34.566Z,-1.00
2023-02-09T17:56:02.665Z,-1.05
2023-02-09T17:58:29.405Z,-1.06
2023-02-09T18:00:56.450Z,-1.12
2023-02-09T18:03:24.903Z,-1.10
2023-02-09T18:05:58.633Z,-1.16
2023-02-09T18:08:27.148Z,-1.10
2023-02-09T18:10:55.225Z,-1.06
2023-02-09T18:13:23.516Z,-1.06
2023-02-09T18:15:51.854Z,-0.91
2023-02-09T18:18:18.416Z,-0.80
2023-02-09T18:20:44.752Z,-0.62
2023-02-09T18:23:15.202Z,-0.60
2023-02-09T18:25:41.794Z,-0.50
2023-02-09T18:28:08.565Z,-0.50
2023-02-09T18:30:38.177Z,-0.59
2023-02-09T18:33:05.917Z,-0.74
2023-02-09T18:35:44.976Z,-0.82
2023-02-09T18:38:14.251Z,-0.93
2023-02-09T18:40:40.636Z,-1.10
2023-02-09T18:43:08.682Z,-1.23
2023-02-09T18:45:35.384Z,-1.30
2023-02-09T18:48:01.995Z,-1.30
2023-02-09T18:50:31.205Z,-1.03
2023-02-09T18:53:00.244Z,-0.71
2023-02-09T18:55:31.682Z,-0.44
2023-02-09T18:58:00.722Z,-0.47
2023-02-09T19:00:27.622Z,-0.33
2023-02-09T19:02:57.638Z,-0.45
2023-02-09T19:05:26.427Z,-0.47
2023-02-09T19:07:53.257Z,-0.55
2023-02-09T19:10:20.429Z,-0.76
2023-02-09T19:12:47.496Z,-0.83
2023-02-09T19:15:14.974Z,-1.00
2023-02-09T19:17:41.930Z,-1.13
2023-02-09T19:20:20.415Z,-1.21
2023-02-09T19:22:53.257Z,-1.32
2023-02-09T19:25:21.243Z,-1.42
2023-02-09T19:27:47.882Z,-1.53
2023-02-09T19:30:24.777Z,-1.61
2023-02-09T19:32:53.957Z,-1.38
2023-02-09T19:35:22.521Z,-1.50
2023-02-09T19:37:56.989Z,-1.60
2023-02-09T19:40:39.066Z,-1.58
2023-02-09T19:43:06.302Z,-1.67
2023-02-09T19:45:37.765Z,-1.68
2023-02-09T19:48:06.327Z,-1.81
2023-02-09T19:50:33.721Z,-1.81
2023-02-09T19:53:00.310Z,-1.83
2023-02-09T19:55:26.986Z,-1.83
2023-02-09T19:57:53.809Z,-1.83
2023-02-09T20:00:22.300Z,-1.82
2023-02-09T20:02:49.214Z,-1.81
2023-02-09T20:05:16.382Z,-1.85
2023-02-09T20:07:48.768Z,-1.84
2023-02-09T20:10:15.440Z,-1.78
2023-02-09T20:15:11.635Z,-1.66
2023-02-09T20:17:38.287Z,-1.61
2023-02-09T20:20:05.826Z,-1.69
2023-02-09T20:22:34.733Z,-1.61
2023-02-09T20:25:01.693Z,-1.58
2023-02-09T20:27:28.629Z,-1.48
2023-02-09T20:30:01.092Z,-1.39
2023-02-09T20:32:28.984Z,-1.31
2023-02-09T20:34:55.892Z,-1.43
2023-02-09T20:37:23.504Z,-1.38
2023-02-09T20:39:49.932Z,-1.53
2023-02-09T20:42:36.812Z,-1.64
2023-02-09T20:45:22.806Z,-1.55
2023-02-09T20:47:49.433Z,-1.59
2023-02-09T20:50:18.013Z,-1.35
2023-02-09T20:52:45.673Z,-1.51
2023-02-09T20:55:13.149Z,-1.35
2023-02-09T20:57:40.087Z,-1.41
2023-02-09T21:00:10.180Z,-1.45
2023-02-09T21:02:37.729Z,-1.24
2023-02-09T21:05:05.356Z,-1.11
2023-02-09T21:07:33.364Z,-0.87
2023-02-09T21:09:59.837Z,-0.96
2023-02-09T21:12:26.679Z,-0.99
2023-02-09T21:14:54.289Z,-1.15
2023-02-09T21:17:21.302Z,-1.28
2023-02-09T21:19:47.750Z,-1.38
2023-02-09T21:22:15.262Z,-1.49
2023-02-09T21:24:42.495Z,-1.61
2023-02-09T21:27:09.471Z,-1.66
2023-02-09T21:29:36.462Z,-1.72
2023-02-09T21:32:04.987Z,-1.75
2023-02-09T21:34:37.016Z,-1.78
2023-02-09T21:37:03.594Z,-1.79
2023-02-09T21:39:31.513Z,-1.86
2023-02-09T21:42:16.589Z,-1.96
2023-02-09T21:44:43.214Z,-1.81
2023-02-09T21:47:10.499Z,-1.90
2023-02-09T21:49:36.856Z,-1.72
2023-02-09T21:52:03.429Z,-1.55
2023-02-09T21:54:33.971Z,-1.30
2023-02-09T21:57:01.483Z,-1.20
2023-02-09T21:59:29.114Z,-1.34
2023-02-09T22:01:55.651Z,-1.44
2023-02-09T22:04:22.436Z,-1.53
2023-02-09T22:06:49.244Z,-1.50
2023-02-09T22:09:15.976Z,-1.42
2023-02-09T22:11:42.708Z,-1.34
2023-02-09T22:14:09.195Z,-1.39
2023-02-09T22:16:35.749Z,-1.57
2023-02-09T22:19:02.208Z,-1.58
2023-02-09T22:21:28.620Z,-1.60
2023-02-09T22:23:55.286Z,-1.57
2023-02-09T22:26:22.172Z,-1.59
2023-02-09T22:28:49.197Z,-1.39
2023-02-09T22:31:17.718Z,-1.30
2023-02-09T22:33:44.405Z,-1.21
2023-02-09T22:36:18.695Z,-1.40
2023-02-09T22:38:45.283Z,-1.47
2023-02-09T22:41:23.847Z,-1.72
2023-02-09T22:43:51.943Z,-1.94
2023-02-09T22:46:19.815Z,-2.10
2023-02-09T22:48:55.894Z,-2.35
2023-02-09T22:51:24.051Z,-2.47
2023-02-09T22:53:50.806Z,-2.42
2023-02-09T22:56:17.465Z,-2.41
2023-02-09T22:58:44.215Z,-2.47
2023-02-09T23:01:11.012Z,-2.52
2023-02-09T23:03:38.345Z,-2.56
2023-02-09T23:06:07.427Z,-2.63
2023-02-09T23:08:34.258Z,-2.71
2023-02-09T23:11:06.035Z,-2.76
2023-02-09T23:13:33.847Z,-2.81
2023-02-09T23:16:12.433Z,-2.90
2023-02-09T23:18:39.744Z,-2.96
2023-02-09T23:21:07.723Z,-3.04
2023-02-09T23:23:35.048Z,-2.99
2023-02-09T23:26:01.627Z,-2.74
2023-02-09T23:28:28.152Z,-2.85
2023-02-09T23:30:54.915Z,-2.74
2023-02-09T23:33:22.090Z,-2.58
2023-02-09T23:35:48.726Z,-2.65
2023-02-09T23:38:15.697Z,-2.72
2023-02-09T23:40:42.147Z,-2.66
2023-02-09T23:43:08.871Z,-2.79
2023-02-09T23:45:35.320Z,-2.68
2023-02-09T23:48:02.133Z,-2.66
2023-02-09T23:50:28.625Z,-2.49
2023-02-09T23:52:55.184Z,-2.58
2023-02-09T23:55:22.884Z,-2.59
2023-02-09T23:57:49.338Z,-2.30
